sensor_id;sensor_type;location;lat;lon;timestamp;P1;durP1;ratioP1;P2;durP2;ratioP2
82873;SDS011;72647;51.622;7.540;2024-02-26T00:01:54;3.53;;;1.70;;
82873;SDS011;72647;51.622;7.540;2024-02-26T00:03:54;2.93;;;1.70;;
82873;SDS011;72647;51.622;7.540;2024-02-26T00:05:59;4.80;;;2.03;;
82873;SDS011;72647;51.622;7.540;2024-02-26T00:07:59;2.80;;;1.88;;
82873;SDS011;72647;51.622;7.540;2024-02-26T00:09:59;3.07;;;2.17;;
82873;SDS011;72647;51.622;7.540;2024-02-26T00:12:00;3.27;;;1.83;;
82873;SDS011;72647;51.622;7.540;2024-02-26T00:14:00;5.50;;;2.20;;
82873;SDS011;72647;51.622;7.540;2024-02-26T00:16:00;3.50;;;2.03;;
82873;SDS011;72647;51.622;7.540;2024-02-26T00:18:01;3.10;;;1.80;;
82873;SDS011;72647;51.622;7.540;2024-02-26T00:20:04;3.80;;;2.08;;
82873;SDS011;72647;51.622;7.540;2024-02-26T00:22:08;4.75;;;2.15;;
82873;SDS011;72647;51.622;7.540;2024-02-26T00:24:08;3.57;;;1.83;;
82873;SDS011;72647;51.622;7.540;2024-02-26T00:26:08;3.00;;;1.70;;
82873;SDS011;72647;51.622;7.540;2024-02-26T00:28:10;3.47;;;1.65;;
82873;SDS011;72647;51.622;7.540;2024-02-26T00:30:11;3.40;;;2.17;;
82873;SDS011;72647;51.622;7.540;2024-02-26T00:32:12;2.47;;;1.50;;
82873;SDS011;72647;51.622;7.540;2024-02-26T00:34:12;3.63;;;2.00;;
82873;SDS011;72647;51.622;7.540;2024-02-26T00:36:12;5.17;;;1.80;;
82873;SDS011;72647;51.622;7.540;2024-02-26T00:38:12;2.47;;;1.80;;
82873;SDS011;72647;51.622;7.540;2024-02-26T00:40:13;3.57;;;1.57;;
82873;SDS011;72647;51.622;7.540;2024-02-26T00:42:14;2.85;;;1.60;;
82873;SDS011;72647;51.622;7.540;2024-02-26T00:44:14;3.28;;;1.67;;
82873;SDS011;72647;51.622;7.540;2024-02-26T00:46:15;3.38;;;2.00;;
82873;SDS011;72647;51.622;7.540;2024-02-26T00:48:15;4.23;;;1.63;;
82873;SDS011;72647;51.622;7.540;2024-02-26T00:50:15;3.25;;;1.63;;
82873;SDS011;72647;51.622;7.540;2024-02-26T00:52:15;1.93;;;1.40;;
82873;SDS011;72647;51.622;7.540;2024-02-26T00:54:16;2.90;;;1.20;;
82873;SDS011;72647;51.622;7.540;2024-02-26T00:56:16;3.13;;;1.60;;
82873;SDS011;72647;51.622;7.540;2024-02-26T00:58:16;3.00;;;1.30;;
82873;SDS011;72647;51.622;7.540;2024-02-26T01:00:17;2.83;;;1.48;;
82873;SDS011;72647;51.622;7.540;2024-02-26T01:02:17;2.22;;;1.20;;
82873;SDS011;72647;51.622;7.540;2024-02-26T01:04:17;2.80;;;1.37;;
82873;SDS011;72647;51.622;7.540;2024-02-26T01:08:19;3.30;;;1.17;;
82873;SDS011;72647;51.622;7.540;2024-02-26T01:10:19;3.23;;;1.40;;
82873;SDS011;72647;51.622;7.540;2024-02-26T01:12:19;2.33;;;1.55;;
82873;SDS011;72647;51.622;7.540;2024-02-26T01:14:20;2.35;;;1.45;;
82873;SDS011;72647;51.622;7.540;2024-02-26T01:16:20;2.90;;;1.40;;
82873;SDS011;72647;51.622;7.540;2024-02-26T01:18:20;3.30;;;1.50;;
82873;SDS011;72647;51.622;7.540;2024-02-26T01:20:21;2.10;;;1.30;;
82873;SDS011;72647;51.622;7.540;2024-02-26T01:22:21;2.38;;;1.23;;
82873;SDS011;72647;51.622;7.540;2024-02-26T01:24:22;2.45;;;1.30;;
82873;SDS011;72647;51.622;7.540;2024-02-26T01:26:22;3.07;;;1.50;;
82873;SDS011;72647;51.622;7.540;2024-02-26T01:28:22;2.00;;;1.40;;
82873;SDS011;72647;51.622;7.540;2024-02-26T01:30:22;2.15;;;1.30;;
82873;SDS011;72647;51.622;7.540;2024-02-26T01:32:23;3.60;;;2.00;;
82873;SDS011;72647;51.622;7.540;2024-02-26T01:34:23;2.10;;;1.20;;
82873;SDS011;72647;51.622;7.540;2024-02-26T01:36:23;2.50;;;1.40;;
82873;SDS011;72647;51.622;7.540;2024-02-26T01:38:23;2.00;;;1.37;;
82873;SDS011;72647;51.622;7.540;2024-02-26T01:40:26;2.50;;;1.30;;
82873;SDS011;72647;51.622;7.540;2024-02-26T01:42:26;1.92;;;1.17;;
82873;SDS011;72647;51.622;7.540;2024-02-26T01:44:27;2.57;;;1.20;;
82873;SDS011;72647;51.622;7.540;2024-02-26T01:46:27;2.58;;;1.30;;
82873;SDS011;72647;51.622;7.540;2024-02-26T01:50:29;2.73;;;1.27;;
82873;SDS011;72647;51.622;7.540;2024-02-26T01:52:29;2.92;;;1.55;;
82873;SDS011;72647;51.622;7.540;2024-02-26T01:54:29;2.72;;;1.20;;
82873;SDS011;72647;51.622;7.540;2024-02-26T01:56:30;2.70;;;1.40;;
82873;SDS011;72647;51.622;7.540;2024-02-26T02:00:32;2.37;;;1.17;;
82873;SDS011;72647;51.622;7.540;2024-02-26T02:02:32;2.67;;;1.30;;
82873;SDS011;72647;51.622;7.540;2024-02-26T02:04:32;1.93;;;1.17;;
82873;SDS011;72647;51.622;7.540;2024-02-26T02:06:33;1.83;;;0.98;;
82873;SDS011;72647;51.622;7.540;2024-02-26T02:10:35;3.10;;;1.40;;
82873;SDS011;72647;51.622;7.540;2024-02-26T02:12:35;5.43;;;1.42;;
82873;SDS011;72647;51.622;7.540;2024-02-26T02:14:38;2.10;;;1.27;;
82873;SDS011;72647;51.622;7.540;2024-02-26T02:16:38;2.00;;;1.05;;
82873;SDS011;72647;51.622;7.540;2024-02-26T02:18:39;2.33;;;1.02;;
82873;SDS011;72647;51.622;7.540;2024-02-26T02:20:39;1.70;;;1.10;;
82873;SDS011;72647;51.622;7.540;2024-02-26T02:22:40;2.17;;;1.35;;
82873;SDS011;72647;51.622;7.540;2024-02-26T02:24:40;2.08;;;1.20;;
82873;SDS011;72647;51.622;7.540;2024-02-26T02:26:40;1.73;;;1.17;;
82873;SDS011;72647;51.622;7.540;2024-02-26T02:28:41;1.50;;;1.08;;
82873;SDS011;72647;51.622;7.540;2024-02-26T02:30:41;1.90;;;1.10;;
82873;SDS011;72647;51.622;7.540;2024-02-26T02:32:41;2.90;;;1.33;;
82873;SDS011;72647;51.622;7.540;2024-02-26T02:34:42;2.45;;;1.30;;
82873;SDS011;72647;51.622;7.540;2024-02-26T02:36:49;2.70;;;1.35;;
82873;SDS011;72647;51.622;7.540;2024-02-26T02:38:50;2.55;;;1.25;;
82873;SDS011;72647;51.622;7.540;2024-02-26T02:40:50;2.22;;;1.30;;
82873;SDS011;72647;51.622;7.540;2024-02-26T02:42:51;2.58;;;1.40;;
82873;SDS011;72647;51.622;7.540;2024-02-26T02:44:51;2.63;;;1.40;;
82873;SDS011;72647;51.622;7.540;2024-02-26T02:46:51;2.47;;;1.53;;
82873;SDS011;72647;51.622;7.540;2024-02-26T02:48:53;1.98;;;1.30;;
82873;SDS011;72647;51.622;7.540;2024-02-26T02:50:53;2.30;;;1.20;;
82873;SDS011;72647;51.622;7.540;2024-02-26T02:52:53;2.73;;;1.30;;
82873;SDS011;72647;51.622;7.540;2024-02-26T02:54:54;2.28;;;1.25;;
82873;SDS011;72647;51.622;7.540;2024-02-26T02:56:54;2.50;;;1.43;;
82873;SDS011;72647;51.622;7.540;2024-02-26T02:58:55;2.07;;;1.20;;
82873;SDS011;72647;51.622;7.540;2024-02-26T03:00:55;2.40;;;1.10;;
82873;SDS011;72647;51.622;7.540;2024-02-26T03:02:56;2.10;;;1.40;;
82873;SDS011;72647;51.622;7.540;2024-02-26T03:04:56;1.80;;;1.20;;
82873;SDS011;72647;51.622;7.540;2024-02-26T03:06:56;1.83;;;0.98;;
82873;SDS011;72647;51.622;7.540;2024-02-26T03:08:57;1.77;;;0.80;;
82873;SDS011;72647;51.622;7.540;2024-02-26T03:10:58;3.28;;;1.10;;
82873;SDS011;72647;51.622;7.540;2024-02-26T03:12:58;2.13;;;1.20;;
82873;SDS011;72647;51.622;7.540;2024-02-26T03:14:59;3.08;;;1.10;;
82873;SDS011;72647;51.622;7.540;2024-02-26T03:17:02;4.40;;;1.00;;
82873;SDS011;72647;51.622;7.540;2024-02-26T03:19:03;2.38;;;1.20;;
82873;SDS011;72647;51.622;7.540;2024-02-26T03:21:03;2.63;;;1.30;;
82873;SDS011;72647;51.622;7.540;2024-02-26T03:23:04;2.15;;;1.00;;
82873;SDS011;72647;51.622;7.540;2024-02-26T03:25:04;2.45;;;1.00;;
82873;SDS011;72647;51.622;7.540;2024-02-26T03:27:04;1.55;;;1.00;;
82873;SDS011;72647;51.622;7.540;2024-02-26T03:29:09;1.42;;;0.80;;
82873;SDS011;72647;51.622;7.540;2024-02-26T03:31:10;2.47;;;1.08;;
82873;SDS011;72647;51.622;7.540;2024-02-26T03:33:10;2.00;;;1.08;;
82873;SDS011;72647;51.622;7.540;2024-02-26T03:35:11;2.07;;;0.93;;
82873;SDS011;72647;51.622;7.540;2024-02-26T03:37:11;1.25;;;0.90;;
82873;SDS011;72647;51.622;7.540;2024-02-26T03:39:12;1.13;;;0.73;;
82873;SDS011;72647;51.622;7.540;2024-02-26T03:41:12;1.88;;;0.85;;
82873;SDS011;72647;51.622;7.540;2024-02-26T03:43:12;1.27;;;0.80;;
82873;SDS011;72647;51.622;7.540;2024-02-26T03:45:13;1.58;;;0.90;;
82873;SDS011;72647;51.622;7.540;2024-02-26T03:47:14;1.30;;;0.80;;
82873;SDS011;72647;51.622;7.540;2024-02-26T03:49:15;1.50;;;0.70;;
82873;SDS011;72647;51.622;7.540;2024-02-26T03:51:16;1.98;;;0.80;;
82873;SDS011;72647;51.622;7.540;2024-02-26T03:53:17;1.80;;;1.10;;
82873;SDS011;72647;51.622;7.540;2024-02-26T03:55:18;2.07;;;0.90;;
82873;SDS011;72647;51.622;7.540;2024-02-26T03:57:25;1.80;;;1.45;;
82873;SDS011;72647;51.622;7.540;2024-02-26T03:59:26;1.50;;;0.90;;
82873;SDS011;72647;51.622;7.540;2024-02-26T04:01:26;2.50;;;1.10;;
82873;SDS011;72647;51.622;7.540;2024-02-26T04:03:26;1.50;;;1.08;;
82873;SDS011;72647;51.622;7.540;2024-02-26T04:05:27;2.00;;;1.20;;
82873;SDS011;72647;51.622;7.540;2024-02-26T04:07:27;1.50;;;0.90;;
82873;SDS011;72647;51.622;7.540;2024-02-26T04:09:27;2.30;;;1.00;;
82873;SDS011;72647;51.622;7.540;2024-02-26T04:11:28;2.10;;;1.23;;
82873;SDS011;72647;51.622;7.540;2024-02-26T04:13:28;1.88;;;1.10;;
82873;SDS011;72647;51.622;7.540;2024-02-26T04:15:28;1.70;;;1.23;;
82873;SDS011;72647;51.622;7.540;2024-02-26T04:17:29;2.70;;;1.38;;
82873;SDS011;72647;51.622;7.540;2024-02-26T04:19:29;2.30;;;1.40;;
82873;SDS011;72647;51.622;7.540;2024-02-26T04:21:30;2.57;;;1.27;;
82873;SDS011;72647;51.622;7.540;2024-02-26T04:23:30;2.30;;;1.50;;
82873;SDS011;72647;51.622;7.540;2024-02-26T04:25:30;1.80;;;1.27;;
82873;SDS011;72647;51.622;7.540;2024-02-26T04:27:30;1.83;;;1.20;;
82873;SDS011;72647;51.622;7.540;2024-02-26T04:29:31;2.80;;;1.77;;
82873;SDS011;72647;51.622;7.540;2024-02-26T04:31:31;3.88;;;1.95;;
82873;SDS011;72647;51.622;7.540;2024-02-26T04:33:36;1.95;;;1.20;;
82873;SDS011;72647;51.622;7.540;2024-02-26T04:35:36;2.70;;;1.20;;
82873;SDS011;72647;51.622;7.540;2024-02-26T04:37:37;2.73;;;1.20;;
82873;SDS011;72647;51.622;7.540;2024-02-26T04:41:38;1.87;;;1.17;;
82873;SDS011;72647;51.622;7.540;2024-02-26T04:43:38;2.30;;;1.03;;
82873;SDS011;72647;51.622;7.540;2024-02-26T04:45:44;1.98;;;1.17;;
82873;SDS011;72647;51.622;7.540;2024-02-26T04:47:44;2.08;;;1.23;;
82873;SDS011;72647;51.622;7.540;2024-02-26T04:49:44;2.57;;;1.43;;
82873;SDS011;72647;51.622;7.540;2024-02-26T04:51:45;2.60;;;1.10;;
82873;SDS011;72647;51.622;7.540;2024-02-26T04:53:45;3.28;;;1.40;;
82873;SDS011;72647;51.622;7.540;2024-02-26T04:55:45;2.43;;;1.23;;
82873;SDS011;72647;51.622;7.540;2024-02-26T04:57:45;2.13;;;1.30;;
82873;SDS011;72647;51.622;7.540;2024-02-26T04:59:46;2.58;;;1.40;;
82873;SDS011;72647;51.622;7.540;2024-02-26T05:01:46;3.07;;;1.40;;
82873;SDS011;72647;51.622;7.540;2024-02-26T05:03:46;1.95;;;1.00;;
82873;SDS011;72647;51.622;7.540;2024-02-26T05:05:46;2.60;;;1.20;;
82873;SDS011;72647;51.622;7.540;2024-02-26T05:07:47;2.20;;;1.40;;
82873;SDS011;72647;51.622;7.540;2024-02-26T05:09:47;2.55;;;1.48;;
82873;SDS011;72647;51.622;7.540;2024-02-26T05:11:49;2.20;;;1.40;;
82873;SDS011;72647;51.622;7.540;2024-02-26T05:13:50;2.17;;;1.08;;
82873;SDS011;72647;51.622;7.540;2024-02-26T05:15:50;3.13;;;1.57;;
82873;SDS011;72647;51.622;7.540;2024-02-26T05:17:52;2.30;;;1.30;;
82873;SDS011;72647;51.622;7.540;2024-02-26T05:19:52;3.78;;;1.13;;
82873;SDS011;72647;51.622;7.540;2024-02-26T05:21:53;2.57;;;1.23;;
82873;SDS011;72647;51.622;7.540;2024-02-26T05:23:53;2.10;;;1.23;;
82873;SDS011;72647;51.622;7.540;2024-02-26T05:25:53;2.77;;;1.40;;
82873;SDS011;72647;51.622;7.540;2024-02-26T05:27:53;3.10;;;1.30;;
82873;SDS011;72647;51.622;7.540;2024-02-26T05:29:54;1.95;;;1.33;;
82873;SDS011;72647;51.622;7.540;2024-02-26T05:31:54;3.13;;;1.40;;
82873;SDS011;72647;51.622;7.540;2024-02-26T05:33:54;1.95;;;1.48;;
82873;SDS011;72647;51.622;7.540;2024-02-26T05:35:55;1.90;;;1.20;;
82873;SDS011;72647;51.622;7.540;2024-02-26T05:37:55;2.03;;;1.10;;
82873;SDS011;72647;51.622;7.540;2024-02-26T05:39:55;3.08;;;1.30;;
82873;SDS011;72647;51.622;7.540;2024-02-26T05:41:56;2.17;;;1.27;;
82873;SDS011;72647;51.622;7.540;2024-02-26T05:43:56;2.50;;;1.30;;
82873;SDS011;72647;51.622;7.540;2024-02-26T05:45:57;2.95;;;1.63;;
82873;SDS011;72647;51.622;7.540;2024-02-26T05:47:57;5.17;;;1.77;;
82873;SDS011;72647;51.622;7.540;2024-02-26T05:49:57;3.53;;;1.57;;
82873;SDS011;72647;51.622;7.540;2024-02-26T05:51:59;3.67;;;1.95;;
82873;SDS011;72647;51.622;7.540;2024-02-26T05:53:59;3.97;;;1.85;;
82873;SDS011;72647;51.622;7.540;2024-02-26T05:55:59;2.85;;;1.52;;
82873;SDS011;72647;51.622;7.540;2024-02-26T05:58:00;2.50;;;1.30;;
82873;SDS011;72647;51.622;7.540;2024-02-26T06:00:00;1.80;;;1.33;;
82873;SDS011;72647;51.622;7.540;2024-02-26T06:02:03;2.50;;;1.73;;
82873;SDS011;72647;51.622;7.540;2024-02-26T06:04:04;3.78;;;1.65;;
82873;SDS011;72647;51.622;7.540;2024-02-26T06:06:04;3.20;;;1.30;;
82873;SDS011;72647;51.622;7.540;2024-02-26T06:08:04;2.47;;;1.27;;
82873;SDS011;72647;51.622;7.540;2024-02-26T06:10:05;2.85;;;1.45;;
82873;SDS011;72647;51.622;7.540;2024-02-26T06:12:05;2.78;;;1.60;;
82873;SDS011;72647;51.622;7.540;2024-02-26T06:14:06;3.13;;;1.90;;
82873;SDS011;72647;51.622;7.540;2024-02-26T06:16:07;4.80;;;1.77;;
82873;SDS011;72647;51.622;7.540;2024-02-26T06:18:08;3.30;;;1.70;;
82873;SDS011;72647;51.622;7.540;2024-02-26T06:20:08;2.47;;;1.83;;
82873;SDS011;72647;51.622;7.540;2024-02-26T06:22:12;2.50;;;1.60;;
82873;SDS011;72647;51.622;7.540;2024-02-26T06:24:12;3.90;;;1.70;;
82873;SDS011;72647;51.622;7.540;2024-02-26T06:26:13;3.03;;;1.73;;
82873;SDS011;72647;51.622;7.540;2024-02-26T06:28:13;2.60;;;1.80;;
82873;SDS011;72647;51.622;7.540;2024-02-26T06:30:13;3.90;;;1.42;;
82873;SDS011;72647;51.622;7.540;2024-02-26T06:32:14;5.15;;;1.95;;
82873;SDS011;72647;51.622;7.540;2024-02-26T06:34:14;3.30;;;1.77;;
82873;SDS011;72647;51.622;7.540;2024-02-26T06:36:17;3.42;;;1.98;;
82873;SDS011;72647;51.622;7.540;2024-02-26T06:38:17;2.42;;;1.73;;
82873;SDS011;72647;51.622;7.540;2024-02-26T06:40:18;2.97;;;1.70;;
82873;SDS011;72647;51.622;7.540;2024-02-26T06:42:19;2.70;;;1.88;;
82873;SDS011;72647;51.622;7.540;2024-02-26T06:44:19;3.17;;;1.73;;
82873;SDS011;72647;51.622;7.540;2024-02-26T06:46:19;4.57;;;2.20;;
82873;SDS011;72647;51.622;7.540;2024-02-26T06:48:20;4.97;;;2.00;;
82873;SDS011;72647;51.622;7.540;2024-02-26T06:50:20;4.50;;;2.40;;
82873;SDS011;72647;51.622;7.540;2024-02-26T06:52:20;3.83;;;2.10;;
82873;SDS011;72647;51.622;7.540;2024-02-26T06:54:20;4.65;;;2.10;;
82873;SDS011;72647;51.622;7.540;2024-02-26T06:56:21;2.87;;;2.00;;
82873;SDS011;72647;51.622;7.540;2024-02-26T06:58:21;3.72;;;1.95;;
82873;SDS011;72647;51.622;7.540;2024-02-26T07:00:21;5.80;;;2.17;;
82873;SDS011;72647;51.622;7.540;2024-02-26T07:02:21;3.10;;;1.93;;
82873;SDS011;72647;51.622;7.540;2024-02-26T07:04:22;5.00;;;2.10;;
82873;SDS011;72647;51.622;7.540;2024-02-26T07:06:22;3.55;;;2.10;;
82873;SDS011;72647;51.622;7.540;2024-02-26T07:08:23;3.30;;;2.25;;
82873;SDS011;72647;51.622;7.540;2024-02-26T07:10:23;2.97;;;2.10;;
82873;SDS011;72647;51.622;7.540;2024-02-26T07:12:23;2.93;;;1.90;;
82873;SDS011;72647;51.622;7.540;2024-02-26T07:14:24;4.68;;;2.10;;
82873;SDS011;72647;51.622;7.540;2024-02-26T07:16:24;3.63;;;1.85;;
82873;SDS011;72647;51.622;7.540;2024-02-26T07:18:25;2.63;;;1.75;;
82873;SDS011;72647;51.622;7.540;2024-02-26T07:20:25;4.70;;;2.20;;
82873;SDS011;72647;51.622;7.540;2024-02-26T07:22:25;3.20;;;1.90;;
82873;SDS011;72647;51.622;7.540;2024-02-26T07:24:25;4.70;;;2.00;;
82873;SDS011;72647;51.622;7.540;2024-02-26T07:26:26;4.25;;;1.92;;
82873;SDS011;72647;51.622;7.540;2024-02-26T07:28:26;3.33;;;1.75;;
82873;SDS011;72647;51.622;7.540;2024-02-26T07:30:26;2.90;;;1.83;;
82873;SDS011;72647;51.622;7.540;2024-02-26T07:32:26;2.97;;;2.00;;
82873;SDS011;72647;51.622;7.540;2024-02-26T07:34:27;4.27;;;1.80;;
82873;SDS011;72647;51.622;7.540;2024-02-26T07:36:29;2.75;;;1.70;;
82873;SDS011;72647;51.622;7.540;2024-02-26T07:38:29;2.90;;;1.98;;
82873;SDS011;72647;51.622;7.540;2024-02-26T07:40:29;4.53;;;1.55;;
82873;SDS011;72647;51.622;7.540;2024-02-26T07:42:30;3.95;;;1.83;;
82873;SDS011;72647;51.622;7.540;2024-02-26T07:44:30;3.58;;;1.98;;
82873;SDS011;72647;51.622;7.540;2024-02-26T07:46:30;2.70;;;1.70;;
82873;SDS011;72647;51.622;7.540;2024-02-26T07:48:31;3.70;;;1.53;;
82873;SDS011;72647;51.622;7.540;2024-02-26T07:50:31;2.67;;;1.53;;
82873;SDS011;72647;51.622;7.540;2024-02-26T07:52:32;2.87;;;1.77;;
82873;SDS011;72647;51.622;7.540;2024-02-26T07:54:32;2.35;;;1.50;;
82873;SDS011;72647;51.622;7.540;2024-02-26T07:56:33;2.92;;;1.83;;
82873;SDS011;72647;51.622;7.540;2024-02-26T07:58:33;3.78;;;1.88;;
82873;SDS011;72647;51.622;7.540;2024-02-26T08:00:33;2.70;;;1.60;;
82873;SDS011;72647;51.622;7.540;2024-02-26T08:02:33;3.25;;;1.70;;
82873;SDS011;72647;51.622;7.540;2024-02-26T08:04:34;3.20;;;1.60;;
82873;SDS011;72647;51.622;7.540;2024-02-26T08:06:34;3.13;;;1.97;;
82873;SDS011;72647;51.622;7.540;2024-02-26T08:08:34;3.58;;;1.70;;
82873;SDS011;72647;51.622;7.540;2024-02-26T08:10:35;2.95;;;1.73;;
82873;SDS011;72647;51.622;7.540;2024-02-26T08:12:35;3.70;;;1.65;;
82873;SDS011;72647;51.622;7.540;2024-02-26T08:14:35;3.25;;;1.85;;
82873;SDS011;72647;51.622;7.540;2024-02-26T08:16:35;4.00;;;2.00;;
82873;SDS011;72647;51.622;7.540;2024-02-26T08:18:36;3.10;;;1.83;;
82873;SDS011;72647;51.622;7.540;2024-02-26T08:20:36;4.10;;;2.10;;
82873;SDS011;72647;51.622;7.540;2024-02-26T08:22:37;3.88;;;1.88;;
82873;SDS011;72647;51.622;7.540;2024-02-26T08:24:39;2.65;;;1.80;;
82873;SDS011;72647;51.622;7.540;2024-02-26T08:26:39;5.50;;;2.00;;
82873;SDS011;72647;51.622;7.540;2024-02-26T08:28:39;5.13;;;1.80;;
82873;SDS011;72647;51.622;7.540;2024-02-26T08:30:39;3.20;;;2.00;;
82873;SDS011;72647;51.622;7.540;2024-02-26T08:32:40;3.78;;;2.35;;
82873;SDS011;72647;51.622;7.540;2024-02-26T08:34:40;2.80;;;1.90;;
82873;SDS011;72647;51.622;7.540;2024-02-26T08:36:40;3.87;;;2.10;;
82873;SDS011;72647;51.622;7.540;2024-02-26T08:38:43;2.72;;;1.88;;
82873;SDS011;72647;51.622;7.540;2024-02-26T08:40:43;3.37;;;1.70;;
82873;SDS011;72647;51.622;7.540;2024-02-26T08:42:43;3.08;;;1.90;;
82873;SDS011;72647;51.622;7.540;2024-02-26T08:44:44;4.15;;;1.88;;
82873;SDS011;72647;51.622;7.540;2024-02-26T08:46:44;2.70;;;1.93;;
82873;SDS011;72647;51.622;7.540;2024-02-26T08:48:45;2.70;;;1.80;;
82873;SDS011;72647;51.622;7.540;2024-02-26T08:50:46;3.13;;;2.03;;
82873;SDS011;72647;51.622;7.540;2024-02-26T08:52:46;3.73;;;2.10;;
82873;SDS011;72647;51.622;7.540;2024-02-26T08:54:50;4.40;;;1.60;;
82873;SDS011;72647;51.622;7.540;2024-02-26T08:56:50;3.30;;;2.17;;
82873;SDS011;72647;51.622;7.540;2024-02-26T08:58:51;2.90;;;2.00;;
82873;SDS011;72647;51.622;7.540;2024-02-26T09:00:53;2.75;;;1.52;;
82873;SDS011;72647;51.622;7.540;2024-02-26T09:02:54;2.42;;;1.70;;
82873;SDS011;72647;51.622;7.540;2024-02-26T09:04:54;2.78;;;1.80;;
82873;SDS011;72647;51.622;7.540;2024-02-26T09:06:56;3.25;;;1.95;;
82873;SDS011;72647;51.622;7.540;2024-02-26T09:08:56;4.70;;;1.90;;
82873;SDS011;72647;51.622;7.540;2024-02-26T09:10:56;2.97;;;1.80;;
82873;SDS011;72647;51.622;7.540;2024-02-26T09:12:57;3.33;;;2.00;;
82873;SDS011;72647;51.622;7.540;2024-02-26T09:14:57;1.92;;;1.42;;
82873;SDS011;72647;51.622;7.540;2024-02-26T09:16:57;3.30;;;2.00;;
82873;SDS011;72647;51.622;7.540;2024-02-26T09:18:57;4.93;;;1.70;;
82873;SDS011;72647;51.622;7.540;2024-02-26T09:20:58;3.23;;;1.50;;
82873;SDS011;72647;51.622;7.540;2024-02-26T09:22:58;3.65;;;1.90;;
82873;SDS011;72647;51.622;7.540;2024-02-26T09:24:58;4.43;;;1.70;;
82873;SDS011;72647;51.622;7.540;2024-02-26T09:26:59;4.97;;;2.10;;
82873;SDS011;72647;51.622;7.540;2024-02-26T09:28:59;2.60;;;1.63;;
82873;SDS011;72647;51.622;7.540;2024-02-26T09:30:59;3.93;;;1.97;;
82873;SDS011;72647;51.622;7.540;2024-02-26T09:33:00;4.43;;;1.80;;
82873;SDS011;72647;51.622;7.540;2024-02-26T09:35:00;2.50;;;1.80;;
82873;SDS011;72647;51.622;7.540;2024-02-26T09:37:00;4.00;;;2.00;;
82873;SDS011;72647;51.622;7.540;2024-02-26T09:39:01;4.40;;;1.92;;
82873;SDS011;72647;51.622;7.540;2024-02-26T09:41:01;5.10;;;1.63;;
82873;SDS011;72647;51.622;7.540;2024-02-26T09:43:01;4.00;;;1.80;;
82873;SDS011;72647;51.622;7.540;2024-02-26T09:45:05;3.85;;;1.73;;
82873;SDS011;72647;51.622;7.540;2024-02-26T09:47:09;4.20;;;2.00;;
82873;SDS011;72647;51.622;7.540;2024-02-26T09:49:10;3.08;;;1.90;;
82873;SDS011;72647;51.622;7.540;2024-02-26T09:51:11;3.75;;;1.83;;
82873;SDS011;72647;51.622;7.540;2024-02-26T09:53:12;3.90;;;1.90;;
82873;SDS011;72647;51.622;7.540;2024-02-26T09:55:12;3.85;;;2.00;;
82873;SDS011;72647;51.622;7.540;2024-02-26T09:57:12;2.50;;;1.60;;
82873;SDS011;72647;51.622;7.540;2024-02-26T09:59:16;2.92;;;1.73;;
82873;SDS011;72647;51.622;7.540;2024-02-26T10:01:18;3.78;;;1.70;;
82873;SDS011;72647;51.622;7.540;2024-02-26T10:03:18;4.45;;;1.85;;
82873;SDS011;72647;51.622;7.540;2024-02-26T10:05:21;3.67;;;1.80;;
82873;SDS011;72647;51.622;7.540;2024-02-26T10:07:22;2.67;;;1.52;;
82873;SDS011;72647;51.622;7.540;2024-02-26T10:09:22;3.17;;;1.77;;
82873;SDS011;72647;51.622;7.540;2024-02-26T10:11:23;3.10;;;1.70;;
82873;SDS011;72647;51.622;7.540;2024-02-26T10:13:23;2.50;;;1.40;;
82873;SDS011;72647;51.622;7.540;2024-02-26T10:15:24;3.20;;;1.60;;
82873;SDS011;72647;51.622;7.540;2024-02-26T10:17:24;4.33;;;1.77;;
82873;SDS011;72647;51.622;7.540;2024-02-26T10:19:28;3.22;;;2.00;;
82873;SDS011;72647;51.622;7.540;2024-02-26T10:21:29;3.60;;;1.83;;
82873;SDS011;72647;51.622;7.540;2024-02-26T10:23:29;3.58;;;1.80;;
82873;SDS011;72647;51.622;7.540;2024-02-26T10:25:29;3.97;;;1.93;;
82873;SDS011;72647;51.622;7.540;2024-02-26T10:27:31;3.35;;;2.00;;
82873;SDS011;72647;51.622;7.540;2024-02-26T10:29:32;3.83;;;2.15;;
82873;SDS011;72647;51.622;7.540;2024-02-26T10:31:32;5.03;;;2.17;;
82873;SDS011;72647;51.622;7.540;2024-02-26T10:33:33;4.53;;;2.23;;
82873;SDS011;72647;51.622;7.540;2024-02-26T10:35:35;4.50;;;2.10;;
82873;SDS011;72647;51.622;7.540;2024-02-26T10:37:40;3.83;;;2.42;;
82873;SDS011;72647;51.622;7.540;2024-02-26T10:39:46;3.88;;;2.40;;
82873;SDS011;72647;51.622;7.540;2024-02-26T10:41:46;4.18;;;1.98;;
82873;SDS011;72647;51.622;7.540;2024-02-26T10:43:47;3.92;;;2.35;;
82873;SDS011;72647;51.622;7.540;2024-02-26T10:45:47;3.00;;;1.85;;
82873;SDS011;72647;51.622;7.540;2024-02-26T10:47:47;5.80;;;2.20;;
82873;SDS011;72647;51.622;7.540;2024-02-26T10:49:48;5.97;;;1.90;;
82873;SDS011;72647;51.622;7.540;2024-02-26T10:51:57;4.22;;;1.92;;
82873;SDS011;72647;51.622;7.540;2024-02-26T10:53:58;4.30;;;2.33;;
82873;SDS011;72647;51.622;7.540;2024-02-26T10:56:02;6.05;;;2.63;;
82873;SDS011;72647;51.622;7.540;2024-02-26T10:58:03;4.72;;;2.20;;
82873;SDS011;72647;51.622;7.540;2024-02-26T11:00:04;14.52;;;2.95;;
82873;SDS011;72647;51.622;7.540;2024-02-26T11:02:04;5.93;;;2.85;;
82873;SDS011;72647;51.622;7.540;2024-02-26T11:04:06;5.18;;;3.20;;
82873;SDS011;72647;51.622;7.540;2024-02-26T11:06:08;9.13;;;3.22;;
82873;SDS011;72647;51.622;7.540;2024-02-26T11:08:10;6.45;;;2.80;;
82873;SDS011;72647;51.622;7.540;2024-02-26T11:10:11;5.68;;;3.05;;
82873;SDS011;72647;51.622;7.540;2024-02-26T11:12:12;5.82;;;2.95;;
82873;SDS011;72647;51.622;7.540;2024-02-26T11:14:13;5.07;;;2.70;;
82873;SDS011;72647;51.622;7.540;2024-02-26T11:16:14;6.13;;;3.30;;
82873;SDS011;72647;51.622;7.540;2024-02-26T11:18:14;9.43;;;3.42;;
82873;SDS011;72647;51.622;7.540;2024-02-26T11:20:15;5.35;;;3.20;;
82873;SDS011;72647;51.622;7.540;2024-02-26T11:22:15;7.00;;;3.92;;
82873;SDS011;72647;51.622;7.540;2024-02-26T11:24:16;7.07;;;3.70;;
82873;SDS011;72647;51.622;7.540;2024-02-26T11:26:18;5.70;;;3.38;;
82873;SDS011;72647;51.622;7.540;2024-02-26T11:30:21;7.33;;;3.50;;
82873;SDS011;72647;51.622;7.540;2024-02-26T11:32:23;8.10;;;4.07;;
82873;SDS011;72647;51.622;7.540;2024-02-26T11:34:23;6.68;;;3.40;;
82873;SDS011;72647;51.622;7.540;2024-02-26T11:38:26;9.30;;;4.07;;
82873;SDS011;72647;51.622;7.540;2024-02-26T11:40:27;6.90;;;4.05;;
82873;SDS011;72647;51.622;7.540;2024-02-26T11:42:27;8.32;;;4.22;;
82873;SDS011;72647;51.622;7.540;2024-02-26T11:44:44;13.32;;;4.50;;
82873;SDS011;72647;51.622;7.540;2024-02-26T11:46:45;7.93;;;3.93;;
82873;SDS011;72647;51.622;7.540;2024-02-26T11:48:45;13.50;;;6.00;;
82873;SDS011;72647;51.622;7.540;2024-02-26T11:50:47;9.00;;;4.88;;
82873;SDS011;72647;51.622;7.540;2024-02-26T11:53:47;7.78;;;4.03;;
82873;SDS011;72647;51.622;7.540;2024-02-26T11:55:21;6.60;;;3.90;;
82873;SDS011;72647;51.622;7.540;2024-02-26T11:57:38;9.20;;;4.03;;
82873;SDS011;72647;51.622;7.540;2024-02-26T11:59:39;8.88;;;3.97;;
82873;SDS011;72647;51.622;7.540;2024-02-26T12:01:47;9.55;;;4.30;;
82873;SDS011;72647;51.622;7.540;2024-02-26T12:03:48;6.90;;;3.85;;
82873;SDS011;72647;51.622;7.540;2024-02-26T12:05:48;6.80;;;3.80;;
82873;SDS011;72647;51.622;7.540;2024-02-26T12:08:09;6.90;;;3.70;;
82873;SDS011;72647;51.622;7.540;2024-02-26T12:10:16;6.78;;;3.53;;
82873;SDS011;72647;51.622;7.540;2024-02-26T12:12:17;7.00;;;3.60;;
82873;SDS011;72647;51.622;7.540;2024-02-26T12:14:18;5.65;;;3.20;;
82873;SDS011;72647;51.622;7.540;2024-02-26T12:16:37;6.20;;;3.38;;
82873;SDS011;72647;51.622;7.540;2024-02-26T12:18:37;5.72;;;2.92;;
82873;SDS011;72647;51.622;7.540;2024-02-26T12:20:38;5.93;;;3.03;;
82873;SDS011;72647;51.622;7.540;2024-02-26T12:22:41;5.93;;;3.53;;
82873;SDS011;72647;51.622;7.540;2024-02-26T12:24:44;6.70;;;3.83;;